createdAt,value
2022-11-25T00:02:14.162Z,1.23
2022-11-25T00:04:50.826Z,0.95
2022-11-25T00:07:21.562Z,1.15
2022-11-25T00:09:49.578Z,1.00
2022-11-25T00:12:19.086Z,1.13
2022-11-25T00:14:54.316Z,0.43
2022-11-25T00:17:31.426Z,1.40
2022-11-25T00:20:01.813Z,1.15
2022-11-25T00:22:29.808Z,1.40
2022-11-25T00:25:03.187Z,1.15
2022-11-25T00:27:35.538Z,1.05
2022-11-25T00:30:08.832Z,0.90
2022-11-25T00:32:36.878Z,0.75
2022-11-25T00:35:05.526Z,1.00
2022-11-25T00:37:33.636Z,0.70
2022-11-25T00:40:03.883Z,1.08
2022-11-25T00:45:22.689Z,0.73
2022-11-25T00:47:50.765Z,0.60
2022-11-25T00:50:22.732Z,1.60
2022-11-25T00:52:50.765Z,1.02
2022-11-25T00:55:20.465Z,1.70
2022-11-25T00:57:57.229Z,1.25
2022-11-25T01:00:33.118Z,1.55
2022-11-25T01:03:10.258Z,1.83
2022-11-25T01:05:43.788Z,1.42
2022-11-25T01:08:24.821Z,1.55
2022-11-25T01:11:04.498Z,1.48
2022-11-25T01:13:37.009Z,1.67
2022-11-25T01:16:17.424Z,2.05
2022-11-25T01:18:46.032Z,2.00
2022-11-25T01:21:29.402Z,2.60
2022-11-25T01:24:02.458Z,1.52
2022-11-25T01:26:41.448Z,1.27
2022-11-25T01:29:23.638Z,1.50
2022-11-25T01:32:01.922Z,1.25
2022-11-25T01:34:34.735Z,1.58
2022-11-25T01:37:13.462Z,1.52
2022-11-25T01:39:44.621Z,1.15
2022-11-25T01:42:23.975Z,1.77
2022-11-25T01:45:36.264Z,1.65
2022-11-25T01:48:14.978Z,1.48
2022-11-25T01:50:44.657Z,1.55
2022-11-25T01:53:21.504Z,1.98
2022-11-25T01:56:02.377Z,1.25
2022-11-25T01:58:35.298Z,1.67
2022-11-25T02:01:06.436Z,1.25
2022-11-25T02:03:52.786Z,1.45
2022-11-25T02:06:41.111Z,2.38
2022-11-25T02:09:31.564Z,4.60
2022-11-25T02:12:03.591Z,3.08
2022-11-25T02:14:36.494Z,1.50
2022-11-25T02:17:09.256Z,1.35
2022-11-25T02:20:04.589Z,1.05
2022-11-25T02:22:56.483Z,1.58
2022-11-25T02:25:45.778Z,1.55
2022-11-25T02:28:40.131Z,1.13
2022-11-25T02:31:34.466Z,0.80
2022-11-25T02:34:12.736Z,1.45
2022-11-25T02:36:41.073Z,0.73
2022-11-25T02:39:14.790Z,0.90
2022-11-25T02:42:14.528Z,1.30
2022-11-25T02:44:53.785Z,1.10
2022-11-25T02:47:40.748Z,1.53
2022-11-25T02:50:16.762Z,0.95
2022-11-25T02:52:51.434Z,1.08
2022-11-25T02:55:19.457Z,0.95
2022-11-25T02:57:53.951Z,1.20
2022-11-25T03:00:25.104Z,1.42
2022-11-25T03:05:57.739Z,1.35
2022-11-25T03:08:32.328Z,1.40
2022-11-25T03:11:02.558Z,1.27
2022-11-25T03:16:05.536Z,1.67
2022-11-25T03:18:52.995Z,1.60
2022-11-25T03:21:22.159Z,1.15
2022-11-25T03:23:57.069Z,1.75
2022-11-25T03:26:30.935Z,1.73
2022-11-25T03:29:02.858Z,0.68
2022-11-25T03:31:53.499Z,1.17
2022-11-25T03:34:23.933Z,1.13
2022-11-25T03:36:54.680Z,1.25
2022-11-25T03:39:24.439Z,1.33
2022-11-25T03:42:08.118Z,0.95
2022-11-25T03:44:43.724Z,2.17
2022-11-25T03:47:15.348Z,1.45
2022-11-25T03:49:46.644Z,1.45
2022-11-25T03:52:22.612Z,1.00
2022-11-25T03:54:50.630Z,1.50
2022-11-25T03:57:32.211Z,1.33
2022-11-25T04:00:03.823Z,0.88
2022-11-25T04:02:35.835Z,1.23
2022-11-25T04:05:06.024Z,1.73
2022-11-25T04:07:52.321Z,1.33
2022-11-25T04:10:54.563Z,1.50
2022-11-25T04:13:31.897Z,1.48
2022-11-25T04:16:06.434Z,1.85
2022-11-25T04:18:39.336Z,1.05
2022-11-25T04:21:07.470Z,1.50
2022-11-25T04:23:38.391Z,0.98
2022-11-25T04:26:06.679Z,1.05
2022-11-25T04:28:53.073Z,1.15
2022-11-25T04:31:34.194Z,1.60
2022-11-25T04:34:11.064Z,1.13
2022-11-25T04:36:43.921Z,1.05
2022-11-25T04:39:21.240Z,1.58
2022-11-25T04:41:50.694Z,1.63
2022-11-25T04:44:29.884Z,1.80
2022-11-25T04:47:15.420Z,1.40
2022-11-25T04:50:15.820Z,1.77
2022-11-25T04:53:06.054Z,1.08
2022-11-25T04:58:08.785Z,1.95
2022-11-25T05:01:16.298Z,1.38
2022-11-25T05:03:51.799Z,1.42
2022-11-25T05:06:28.729Z,2.45
2022-11-25T05:09:07.071Z,1.02
2022-11-25T05:11:38.980Z,1.48
2022-11-25T05:14:08.683Z,1.90
2022-11-25T05:16:39.897Z,1.38
2022-11-25T05:19:19.220Z,1.08
2022-11-25T05:21:49.159Z,1.37
2022-11-25T05:24:23.240Z,1.88
2022-11-25T05:27:00.306Z,1.02
2022-11-25T05:32:22.324Z,1.42
2022-11-25T05:34:55.273Z,1.15
2022-11-25T05:37:28.961Z,0.73
2022-11-25T05:40:08.738Z,1.33
2022-11-25T05:43:24.648Z,0.88
2022-11-25T05:45:54.622Z,1.42
2022-11-25T05:48:22.690Z,1.58
2022-11-25T05:50:53.697Z,1.30
2022-11-25T05:53:22.956Z,1.27
2022-11-25T05:55:56.389Z,1.70
2022-11-25T05:58:24.618Z,1.67
2022-11-25T06:01:02.890Z,1.50
2022-11-25T06:03:39.090Z,1.08
2022-11-25T06:06:29.294Z,0.95
2022-11-25T06:09:08.879Z,1.10
2022-11-25T06:11:38.642Z,1.65
2022-11-25T06:14:20.995Z,1.10
2022-11-25T06:16:55.883Z,1.45
2022-11-25T06:19:28.072Z,1.30
2022-11-25T06:22:03.521Z,1.60
2022-11-25T06:24:31.941Z,1.23
2022-11-25T06:27:05.126Z,1.50
2022-11-25T06:29:43.677Z,1.50
2022-11-25T06:32:21.751Z,1.20
2022-11-25T06:35:20.411Z,1.38
2022-11-25T06:38:07.310Z,1.88
2022-11-25T06:40:44.085Z,1.17
2022-11-25T06:43:20.344Z,1.80
2022-11-25T06:46:02.828Z,1.45
2022-11-25T06:48:38.928Z,0.93
2022-11-25T06:51:30.744Z,0.98
2022-11-25T06:54:06.948Z,1.83
2022-11-25T06:56:56.144Z,1.77
2022-11-25T06:59:40.617Z,1.65
2022-11-25T07:02:21.306Z,1.60
2022-11-25T07:04:51.228Z,1.52
2022-11-25T07:07:26.136Z,1.80
2022-11-25T07:09:55.641Z,1.73
2022-11-25T07:12:23.703Z,1.45
2022-11-25T07:14:51.915Z,1.17
2022-11-25T07:17:20.070Z,1.40
2022-11-25T07:19:50.019Z,1.50
2022-11-25T07:22:28.527Z,1.50
2022-11-25T07:25:01.621Z,1.33
2022-11-25T07:31:23.200Z,1.05
2022-11-25T07:33:56.304Z,1.13
2022-11-25T07:36:25.630Z,1.42
2022-11-25T07:38:55.877Z,1.50
2022-11-25T07:43:56.905Z,2.08
2022-11-25T07:46:29.618Z,1.23
2022-11-25T07:49:00.201Z,1.40
2022-11-25T07:51:31.077Z,1.20
2022-11-25T07:54:02.099Z,1.73
2022-11-25T07:56:36.685Z,1.40
2022-11-25T07:59:05.413Z,1.35
2022-11-25T08:01:33.863Z,0.95
2022-11-25T08:04:03.722Z,1.73
2022-11-25T08:06:31.934Z,1.50
2022-11-25T08:09:00.245Z,1.58
2022-11-25T08:11:33.253Z,1.98
2022-11-25T08:14:06.620Z,1.50
2022-11-25T08:16:34.879Z,1.95
2022-11-25T08:19:08.572Z,1.85
2022-11-25T08:21:36.669Z,2.45
2022-11-25T08:24:06.598Z,1.40
2022-11-25T08:26:41.177Z,2.00
2022-11-25T08:29:10.585Z,1.52
2022-11-25T08:31:39.539Z,0.88
2022-11-25T08:34:08.848Z,1.52
2022-11-25T08:36:37.659Z,1.70
2022-11-25T08:39:28.952Z,1.98
2022-11-25T08:41:58.484Z,2.65
2022-11-25T08:44:30.050Z,2.42
2022-11-25T08:46:58.212Z,1.85
2022-11-25T08:49:27.096Z,1.55
2022-11-25T08:51:58.262Z,1.75
2022-11-25T08:54:29.603Z,1.42
2022-11-25T08:57:01.704Z,1.85
2022-11-25T08:59:29.964Z,2.08
2022-11-25T09:01:59.517Z,1.55
2022-11-25T09:04:27.842Z,3.53
2022-11-25T09:06:56.265Z,1.70
2022-11-25T09:09:24.322Z,2.05
2022-11-25T09:11:52.926Z,1.80
2022-11-25T09:14:25.731Z,1.70
2022-11-25T09:16:54.340Z,1.35
2022-11-25T09:19:24.597Z,1.63
2022-11-25T09:24:21.995Z,0.77
2022-11-25T09:26:50.171Z,1.48
2022-11-25T09:29:19.306Z,1.88
2022-11-25T09:31:54.501Z,1.65
2022-11-25T09:34:26.534Z,2.63
2022-11-25T09:36:55.360Z,2.15
2022-11-25T09:39:38.974Z,2.13
2022-11-25T09:42:43.762Z,1.88
2022-11-25T09:45:46.158Z,1.65
2022-11-25T09:48:34.379Z,1.90
2022-11-25T09:51:17.574Z,0.98
2022-11-25T09:53:56.324Z,1.75
2022-11-25T09:56:37.470Z,1.80
2022-11-25T09:59:19.124Z,2.25
2022-11-25T10:01:54.120Z,1.67
2022-11-25T10:04:44.256Z,1.67
2022-11-25T10:07:20.477Z,1.85
2022-11-25T10:10:09.987Z,1.52
2022-11-25T10:12:47.854Z,1.92
2022-11-25T10:15:35.446Z,1.92
2022-11-25T10:18:35.235Z,2.15
2022-11-25T10:21:09.769Z,2.33
2022-11-25T10:23:40.811Z,1.90
2022-11-25T10:26:27.301Z,2.40
2022-11-25T10:29:11.551Z,1.63
2022-11-25T10:32:15.375Z,1.30
2022-11-25T10:34:57.648Z,1.90
2022-11-25T10:37:40.407Z,2.20
2022-11-25T10:40:16.415Z,1.40
2022-11-25T10:42:45.622Z,2.00
2022-11-25T10:45:30.430Z,1.80
2022-11-25T10:48:24.612Z,1.45
2022-11-25T10:51:21.934Z,1.67
2022-11-25T10:54:25.580Z,2.08
2022-11-25T10:57:20.288Z,2.15
2022-11-25T11:03:04.370Z,1.08
2022-11-25T11:05:57.085Z,1.55
2022-11-25T11:08:45.626Z,2.47
2022-11-25T11:14:39.500Z,1.73
2022-11-25T11:17:36.380Z,2.15
2022-11-25T11:20:28.418Z,1.67
2022-11-25T11:23:23.987Z,2.83
2022-11-25T11:26:29.290Z,1.63
2022-11-25T11:29:22.389Z,2.38
2022-11-25T11:32:04.362Z,1.88
2022-11-25T11:35:08.300Z,2.80
2022-11-25T11:38:05.862Z,3.10
2022-11-25T11:40:50.347Z,1.52
2022-11-25T11:43:37.259Z,1.90
2022-11-25T11:46:33.258Z,1.90
2022-11-25T11:49:20.230Z,1.80
2022-11-25T11:52:10.499Z,1.52
2022-11-25T11:58:46.440Z,2.28
2022-11-25T12:01:45.978Z,1.45
2022-11-25T12:04:41.403Z,2.78
2022-11-25T12:07:19.146Z,2.58
2022-11-25T12:10:01.843Z,2.65
2022-11-25T12:12:42.660Z,2.17
2022-11-25T12:15:22.876Z,2.20
2022-11-25T12:20:39.139Z,2.33
2022-11-25T12:23:15.371Z,1.88
2022-11-25T12:25:46.711Z,2.35
2022-11-25T12:28:24.614Z,2.42
2022-11-25T12:31:12.843Z,2.30
2022-11-25T12:33:51.110Z,1.95
2022-11-25T12:36:32.280Z,1.92
2022-11-25T12:39:06.499Z,1.83
2022-11-25T12:41:46.002Z,2.22
2022-11-25T12:44:21.360Z,1.70
2022-11-25T12:47:12.948Z,2.08
2022-11-25T12:49:48.809Z,1.90
2022-11-25T12:52:56.622Z,1.75
2022-11-25T12:55:25.747Z,1.35
2022-11-25T12:58:32.020Z,1.70
2022-11-25T13:01:43.320Z,2.15
2022-11-25T13:04:36.811Z,1.70
2022-11-25T13:07:30.863Z,2.25
2022-11-25T13:10:36.392Z,1.85
2022-11-25T13:13:33.348Z,2.78
2022-11-25T13:16:08.411Z,2.60
2022-11-25T13:18:48.274Z,2.28
2022-11-25T13:21:21.038Z,1.25
2022-11-25T13:23:56.428Z,1.77
2022-11-25T13:26:52.430Z,2.85
2022-11-25T13:30:12.984Z,2.10
2022-11-25T13:32:43.518Z,1.30
2022-11-25T13:35:54.526Z,2.00
2022-11-25T13:39:03.288Z,1.67
2022-11-25T13:41:40.820Z,2.83
2022-11-25T13:44:24.626Z,2.17
2022-11-25T13:47:23.491Z,2.00
2022-11-25T13:50:13.720Z,1.77
2022-11-25T13:52:48.619Z,1.52
2022-11-25T13:55:37.400Z,1.23
2022-11-25T14:01:07.123Z,2.30
2022-11-25T14:04:09.599Z,1.63
2022-11-25T14:07:07.927Z,2.08
2022-11-25T14:10:00.997Z,1.50
2022-11-25T14:13:04.109Z,1.38
2022-11-25T14:15:45.812Z,1.15
2022-11-25T14:22:08.381Z,1.88
2022-11-25T14:24:50.624Z,1.38
2022-11-25T14:27:22.074Z,1.60
2022-11-25T14:29:56.462Z,2.08
2022-11-25T14:32:34.017Z,1.48
2022-11-25T14:35:06.805Z,2.13
2022-11-25T14:40:54.206Z,1.63
2022-11-25T14:43:32.256Z,1.65
2022-11-25T14:46:17.512Z,1.58
2022-11-25T14:48:50.466Z,1.48
2022-11-25T14:51:19.816Z,2.05
2022-11-25T14:54:07.504Z,1.83
2022-11-25T14:56:42.555Z,1.85
2022-11-25T14:59:19.595Z,1.90
2022-11-25T15:02:00.279Z,1.05
2022-11-25T15:04:33.113Z,1.50
2022-11-25T15:07:01.953Z,1.92
2022-11-25T15:09:40.395Z,1.33
2022-11-25T15:12:13.826Z,1.38
2022-11-25T15:14:55.780Z,1.65
2022-11-25T15:17:29.375Z,1.88
2022-11-25T15:20:13.087Z,2.35
2022-11-25T15:22:49.412Z,1.88
2022-11-25T15:29:34.090Z,2.65
2022-11-25T15:32:35.208Z,2.17
2022-11-25T15:35:27.591Z,2.63
2022-11-25T15:38:42.256Z,1.83
2022-11-25T15:42:17.084Z,2.65
2022-11-25T15:45:51.933Z,2.53
2022-11-25T15:51:57.025Z,2.47
2022-11-25T16:09:47.105Z,2.15
2022-11-25T16:12:37.061Z,2.58
2022-11-25T16:19:24.830Z,2.67
2022-11-25T16:22:23.349Z,2.25
2022-11-25T16:25:02.396Z,1.90
2022-11-25T16:31:50.523Z,2.53
2022-11-25T16:35:22.022Z,3.17
2022-11-25T16:49:32.802Z,2.90
2022-11-25T16:52:28.468Z,2.28
2022-11-25T17:09:00.758Z,2.97
2022-11-25T17:12:04.897Z,2.83
2022-11-25T17:14:42.462Z,3.33
2022-11-25T17:17:39.647Z,4.05
2022-11-25T17:20:32.808Z,5.13
2022-11-25T17:26:21.032Z,4.40
2022-11-25T17:29:17.643Z,3.78
2022-11-25T17:31:59.642Z,4.07
2022-11-25T17:34:46.131Z,6.55
2022-11-25T17:37:58.275Z,3.25
2022-11-25T17:44:17.334Z,3.17
2022-11-25T17:47:09.613Z,3.08
2022-11-25T17:47:18.750Z,3.33
2022-11-25T17:49:51.204Z,4.47
2022-11-25T17:52:44.539Z,4.00
2022-11-25T17:55:32.104Z,4.22
2022-11-25T17:58:17.912Z,4.53
2022-11-25T18:01:02.947Z,3.28
2022-11-25T18:03:49.037Z,3.80
2022-11-25T18:16:37.390Z,3.15
2022-11-25T18:23:16.318Z,4.43
2022-11-25T18:26:13.746Z,4.32
2022-11-25T18:32:15.169Z,3.15
2022-11-25T18:35:00.402Z,5.50
2022-11-25T18:38:15.142Z,3.60
2022-11-25T18:41:01.848Z,3.60
2022-11-25T18:43:50.988Z,3.95
2022-11-25T18:57:58.980Z,4.30
2022-11-25T19:00:42.002Z,3.60
2022-11-25T19:03:24.891Z,3.47
2022-11-25T19:06:00.677Z,2.65
2022-11-25T19:08:49.951Z,3.35
2022-11-25T19:11:34.816Z,3.93
2022-11-25T19:14:27.570Z,3.00
2022-11-25T19:17:16.734Z,3.35
2022-11-25T19:20:31.373Z,3.65
2022-11-25T19:23:37.565Z,4.38
2022-11-25T19:26:28.481Z,4.28
2022-11-25T19:29:08.014Z,5.20
2022-11-25T19:35:01.338Z,5.70
2022-11-25T19:41:05.416Z,4.10
2022-11-25T19:43:55.405Z,3.35
2022-11-25T19:49:51.351Z,3.95
2022-11-25T19:52:35.038Z,3.45
2022-11-25T19:55:23.561Z,3.55
2022-11-25T20:01:49.085Z,4.35
2022-11-25T20:04:54.340Z,5.55
2022-11-25T20:07:48.180Z,4.13
2022-11-25T20:10:35.501Z,3.05
2022-11-25T20:13:37.800Z,4.28
2022-11-25T20:16:16.844Z,3.20
2022-11-25T20:18:53.492Z,3.28
2022-11-25T20:21:38.060Z,3.22
2022-11-25T20:24:20.792Z,3.28
2022-11-25T20:26:58.682Z,2.88
2022-11-25T20:29:53.793Z,2.40
2022-11-25T20:32:48.818Z,2.60
2022-11-25T20:35:25.532Z,2.95
2022-11-25T20:41:48.202Z,2.95
2022-11-25T20:44:34.193Z,3.42
2022-11-25T20:48:01.021Z,4.88
2022-11-25T20:54:04.615Z,4.35
2022-11-25T20:56:43.333Z,3.17
2022-11-25T20:59:40.964Z,3.33
2022-11-25T21:06:11.605Z,4.53
2022-11-25T21:09:10.244Z,3.40
2022-11-25T21:11:45.404Z,3.15
2022-11-25T21:14:29.299Z,3.63
2022-11-25T21:17:18.953Z,4.20
2022-11-25T21:19:51.726Z,3.38
2022-11-25T21:22:30.139Z,2.92
2022-11-25T21:25:12.836Z,7.00
2022-11-25T21:28:25.830Z,2.50
2022-11-25T21:31:18.207Z,2.85
2022-11-25T21:38:00.306Z,2.92
2022-11-25T21:41:25.735Z,2.78
2022-11-25T21:43:57.089Z,2.55
2022-11-25T21:49:26.108Z,3.42
2022-11-25T21:51:54.436Z,2.58
2022-11-25T21:58:42.656Z,9.75
2022-11-25T22:01:54.861Z,3.47
2022-11-25T22:04:30.368Z,3.08
2022-11-25T22:07:02.449Z,4.40
2022-11-25T22:09:34.816Z,4.70
2022-11-25T22:12:41.149Z,7.97
2022-11-25T22:15:24.912Z,4.35
2022-11-25T22:18:17.770Z,4.47
2022-11-25T22:20:54.172Z,3.78
2022-11-25T22:23:32.951Z,4.00
2022-11-25T22:26:21.976Z,3.72
2022-11-25T22:28:58.687Z,7.95
2022-11-25T22:31:49.719Z,10.40
2022-11-25T22:34:41.411Z,9.15
2022-11-25T22:37:33.063Z,5.80
2022-11-25T22:40:32.466Z,5.75
2022-11-25T22:43:21.802Z,4.22
2022-11-25T22:45:58.092Z,3.60
2022-11-25T22:48:36.290Z,3.17
2022-11-25T22:51:11.989Z,3.83
2022-11-25T22:53:44.923Z,3.10
2022-11-25T22:56:24.145Z,3.63
2022-11-25T22:59:12.469Z,3.73
2022-11-25T23:02:06.532Z,4.57
2022-11-25T23:04:45.565Z,3.42
2022-11-25T23:07:28.459Z,3.15
2022-11-25T23:10:08.729Z,2.92
2022-11-25T23:15:58.376Z,3.20
2022-11-25T23:18:41.511Z,2.38
2022-11-25T23:24:50.118Z,2.90
2022-11-25T23:27:36.181Z,2.58
2022-11-25T23:33:45.301Z,3.20
2022-11-25T23:36:39.723Z,3.28
2022-11-25T23:39:26.276Z,1.75
2022-11-25T23:42:15.815Z,1.90
2022-11-25T23:44:47.552Z,2.15
2022-11-25T23:47:26.122Z,1.98
2022-11-25T23:50:30.645Z,1.55
2022-11-25T23:53:05.067Z,1.77
2022-11-25T23:55:50.032Z,2.28
2022-11-25T23:58:26.112Z,1.85
